Time;durP1;ratioP1;P1;durP2;ratioP2;P2;SDS_P1;SDS_P2;PMS_P1;PMS_P2;Temp;Humidity;BMP_temperature;BMP_pressure;BME280_temperature;BME280_humidity;BME280_pressure;Samples;Min_cycle;Max_cycle;Signal;HPM_P1;HPM_P2
2021/09/28 00:00:21;;;;;;;58.35;31.58;;;;;;;;;;5028590;28;20021;-75
2021/09/28 00:02:47;;;;;;;59.13;30.30;;;;;;;;;;5030069;28;20029;-76
2021/09/28 00:05:12;;;;;;;50.65;29.63;;;;;;;;;;5029818;28;20029;-77
2021/09/28 00:07:38;;;;;;;55.35;29.50;;;;;;;;;;5029539;28;20096;-76
2021/09/28 00:10:04;;;;;;;55.85;29.80;;;;;;;;;;5028129;28;20094;-76
2021/09/28 00:12:31;;;;;;;50.88;28.23;;;;;;;;;;5028210;28;20033;-75
2021/09/28 00:14:56;;;;;;;50.28;29.67;;;;;;;;;;5028301;28;20026;-76
2021/09/28 00:17:22;;;;;;;58.03;30.27;;;;;;;;;;5028039;28;20060;-76
2021/09/28 00:19:47;;;;;;;51.40;30.98;;;;;;;;;;5029704;28;20103;-76
2021/09/28 00:22:13;;;;;;;56.63;28.23;;;;;;;;;;5029411;28;20388;-75
2021/09/28 00:24:38;;;;;;;55.65;29.13;;;;;;;;;;5029802;28;20485;-76
2021/09/28 00:27:04;;;;;;;53.70;30.05;;;;;;;;;;5028109;28;20410;-77
2021/09/28 00:29:30;;;;;;;50.75;26.98;;;;;;;;;;5028324;28;20068;-75
2021/09/28 00:31:56;;;;;;;53.53;27.52;;;;;;;;;;5029576;28;20044;-75
2021/09/28 00:34:22;;;;;;;48.65;27.27;;;;;;;;;;5027858;28;20381;-76
2021/09/28 00:36:47;;;;;;;49.55;27.90;;;;;;;;;;5029404;28;20473;-76
2021/09/28 00:39:13;;;;;;;52.35;25.75;;;;;;;;;;5028287;28;20040;-75
2021/09/28 00:41:39;;;;;;;49.70;27.65;;;;;;;;;;5028618;28;20108;-76
2021/09/28 00:44:04;;;;;;;45.33;27.25;;;;;;;;;;5028231;28;20540;-75
2021/09/28 00:46:30;;;;;;;50.35;26.23;;;;;;;;;;5028153;28;20416;-75
2021/09/28 00:48:55;;;;;;;49.97;28.60;;;;;;;;;;5029173;28;20041;-75
2021/09/28 00:51:21;;;;;;;50.22;26.60;;;;;;;;;;5027879;28;20060;-75
2021/09/28 00:53:50;;;;;;;51.30;29.73;;;;;;;;;;5027947;28;20022;-75
2021/09/28 00:56:17;;;;;;;51.47;26.73;;;;;;;;;;5029051;28;20026;-76
2021/09/28 00:58:44;;;;;;;49.00;26.35;;;;;;;;;;5027808;28;20025;-75
2021/09/28 01:01:11;;;;;;;47.63;26.33;;;;;;;;;;5029516;28;20364;-75
2021/09/28 01:03:38;;;;;;;49.95;28.08;;;;;;;;;;5029800;28;20021;-75
2021/09/28 01:06:04;;;;;;;45.80;26.17;;;;;;;;;;5011806;28;20556;-75
2021/09/28 01:08:29;;;;;;;47.03;25.35;;;;;;;;;;5031801;28;20029;-73
2021/09/28 01:10:55;;;;;;;49.58;26.77;;;;;;;;;;5031669;28;20038;-73
2021/09/28 01:13:22;;;;;;;51.42;26.85;;;;;;;;;;5031311;28;20025;-74
2021/09/28 01:16:02;;;;;;;47.80;26.10;;;;;;;;;;5031715;28;20018;-73
2021/09/28 01:18:32;;;;;;;49.38;27.20;;;;;;;;;;5032980;28;20032;-73
2021/09/28 01:20:59;;;;;;;46.88;25.60;;;;;;;;;;5031297;28;20473;-73
2021/09/28 01:23:24;;;;;;;46.88;27.10;;;;;;;;;;5032423;28;20025;-73
2021/09/28 01:25:50;;;;;;;49.20;26.10;;;;;;;;;;5031846;28;20032;-73
2021/09/28 01:28:16;;;;;;;47.88;24.55;;;;;;;;;;5031208;28;20116;-73
2021/09/28 01:30:41;;;;;;;43.03;22.95;;;;;;;;;;5031347;28;20049;-74
2021/09/28 01:33:08;;;;;;;43.70;24.13;;;;;;;;;;5031243;28;20139;-74
2021/09/28 01:35:37;;;;;;;47.85;24.50;;;;;;;;;;5032723;28;20100;-73
2021/09/28 01:38:04;;;;;;;46.88;25.70;;;;;;;;;;5032831;28;20040;-73
2021/09/28 01:40:30;;;;;;;46.13;23.88;;;;;;;;;;5032623;28;20100;-74
2021/09/28 01:42:56;;;;;;;44.33;24.48;;;;;;;;;;5032537;28;20768;-73
2021/09/28 01:45:21;;;;;;;42.33;22.95;;;;;;;;;;5030766;28;20022;-73
2021/09/28 01:47:47;;;;;;;45.03;23.95;;;;;;;;;;5032607;28;20354;-73
2021/09/28 01:50:13;;;;;;;46.80;23.98;;;;;;;;;;5030587;28;20095;-74
2021/09/28 01:52:39;;;;;;;49.28;26.08;;;;;;;;;;5032082;28;20477;-73
2021/09/28 01:55:07;;;;;;;41.67;23.50;;;;;;;;;;5030816;28;20109;-73
2021/09/28 01:57:33;;;;;;;41.50;23.45;;;;;;;;;;5032246;28;20037;-73
2021/09/28 02:00:00;;;;;;;44.78;24.38;;;;;;;;;;5031138;28;20021;-74
2021/09/28 02:02:25;;;;;;;47.55;23.70;;;;;;;;;;5032100;28;20034;-73
2021/09/28 02:04:51;;;;;;;46.60;24.83;;;;;;;;;;5032060;28;20017;-73
2021/09/28 02:07:16;;;;;;;45.22;24.35;;;;;;;;;;5031876;28;20029;-73
2021/09/28 02:09:42;;;;;;;45.40;22.63;;;;;;;;;;5031944;28;20025;-72
2021/09/28 02:12:07;;;;;;;44.42;23.42;;;;;;;;;;5030500;28;20040;-73
2021/09/28 02:14:33;;;;;;;48.25;24.88;;;;;;;;;;5030597;28;20040;-72
2021/09/28 02:16:58;;;;;;;38.25;21.85;;;;;;;;;;5030519;28;20021;-73
2021/09/28 02:19:24;;;;;;;43.85;22.63;;;;;;;;;;5031985;28;20086;-72
2021/09/28 02:21:50;;;;;;;41.88;23.50;;;;;;;;;;5030174;28;20047;-74
2021/09/28 02:24:15;;;;;;;41.78;23.02;;;;;;;;;;5031218;28;20373;-73
2021/09/28 02:26:43;;;;;;;42.63;21.83;;;;;;;;;;5030921;28;20068;-73
2021/09/28 02:29:09;;;;;;;40.05;23.02;;;;;;;;;;5030488;28;20053;-74
2021/09/28 02:31:35;;;;;;;44.65;23.25;;;;;;;;;;5030960;28;20033;-72
2021/09/28 02:34:06;;;;;;;42.63;22.23;;;;;;;;;;5030563;28;20121;-74
2021/09/28 02:36:32;;;;;;;43.22;22.55;;;;;;;;;;5030639;28;20029;-73
2021/09/28 02:38:57;;;;;;;46.75;24.55;;;;;;;;;;5032257;28;20033;-72
2021/09/28 02:41:23;;;;;;;49.20;25.10;;;;;;;;;;5030727;28;20037;-72
2021/09/28 02:43:48;;;;;;;41.17;22.27;;;;;;;;;;5032063;28;20064;-73
2021/09/28 02:46:13;;;;;;;43.85;22.90;;;;;;;;;;5031853;28;20465;-73
2021/09/28 02:48:39;;;;;;;41.20;21.85;;;;;;;;;;5030282;28;20082;-72
2021/09/28 02:51:05;;;;;;;48.63;23.58;;;;;;;;;;5030263;28;20076;-73
2021/09/28 02:53:30;;;;;;;41.70;21.60;;;;;;;;;;5031063;28;20040;-73
2021/09/28 02:55:55;;;;;;;41.72;22.45;;;;;;;;;;5029824;28;20056;-74
2021/09/28 02:58:21;;;;;;;41.75;21.42;;;;;;;;;;5031135;28;20511;-73
2021/09/28 03:00:46;;;;;;;42.63;23.38;;;;;;;;;;5030033;28;20030;-73
2021/09/28 03:03:12;;;;;;;45.03;21.75;;;;;;;;;;5029575;28;20036;-74
2021/09/28 03:05:37;;;;;;;46.70;21.95;;;;;;;;;;5029766;28;20033;-73
2021/09/28 03:08:03;;;;;;;39.28;21.00;;;;;;;;;;5031117;28;20025;-73
2021/09/28 03:10:29;;;;;;;40.22;21.42;;;;;;;;;;5030785;28;20083;-73
2021/09/28 03:12:54;;;;;;;40.38;20.83;;;;;;;;;;5031066;28;20068;-74
2021/09/28 03:15:20;;;;;;;41.50;21.70;;;;;;;;;;5029372;28;20265;-74
2021/09/28 03:17:45;;;;;;;42.97;21.25;;;;;;;;;;5029351;28;20056;-73
2021/09/28 03:20:12;;;;;;;41.25;22.20;;;;;;;;;;5030356;28;20048;-73
2021/09/28 03:22:38;;;;;;;41.97;21.38;;;;;;;;;;5030427;28;20053;-73
2021/09/28 03:25:04;;;;;;;47.03;22.38;;;;;;;;;;5030684;28;20057;-73
2021/09/28 03:27:30;;;;;;;41.00;22.05;;;;;;;;;;5030385;28;20033;-75
2021/09/28 03:29:55;;;;;;;39.22;20.88;;;;;;;;;;5023445;28;20073;-74
2021/09/28 03:32:21;;;;;;;42.30;20.45;;;;;;;;;;5038136;28;20055;-74
2021/09/28 03:34:48;;;;;;;38.53;21.40;;;;;;;;;;5030354;28;20042;-73
2021/09/28 03:37:13;;;;;;;41.45;22.13;;;;;;;;;;5030191;28;20564;-74
2021/09/28 03:39:39;;;;;;;43.13;22.45;;;;;;;;;;5029099;28;20108;-74
2021/09/28 03:42:04;;;;;;;41.15;21.70;;;;;;;;;;5029053;28;20433;-75
2021/09/28 03:44:30;;;;;;;41.42;21.85;;;;;;;;;;5028835;28;20424;-73
2021/09/28 03:46:55;;;;;;;44.80;23.27;;;;;;;;;;5030037;28;20159;-74
2021/09/28 03:49:21;;;;;;;46.00;22.15;;;;;;;;;;5030287;28;20025;-74
2021/09/28 03:51:46;;;;;;;43.53;22.75;;;;;;;;;;5030138;28;20114;-74
2021/09/28 03:54:12;;;;;;;45.88;22.30;;;;;;;;;;5029745;28;20033;-73
2021/09/28 03:56:38;;;;;;;47.45;23.52;;;;;;;;;;5030120;28;20033;-74
2021/09/28 03:59:03;;;;;;;44.75;22.13;;;;;;;;;;5030078;28;20041;-73
2021/09/28 04:01:29;;;;;;;43.50;23.00;;;;;;;;;;5028545;28;20037;-74
2021/09/28 04:03:54;;;;;;;46.67;22.08;;;;;;;;;;5030054;28;20037;-72
2021/09/28 04:06:20;;;;;;;44.10;22.27;;;;;;;;;;5028649;28;20036;-74
2021/09/28 04:08:46;;;;;;;43.22;21.63;;;;;;;;;;5030047;28;20067;-73
2021/09/28 04:11:11;;;;;;;42.95;23.33;;;;;;;;;;5028908;28;20033;-74
2021/09/28 04:13:40;;;;;;;40.45;21.77;;;;;;;;;;5029945;28;20144;-73
2021/09/28 04:16:07;;;;;;;43.30;21.52;;;;;;;;;;5028581;28;20543;-72
2021/09/28 04:18:32;;;;;;;40.08;21.65;;;;;;;;;;5028804;28;20030;-72
2021/09/28 04:20:58;;;;;;;40.20;21.80;;;;;;;;;;5030263;28;20025;-74
2021/09/28 04:23:24;;;;;;;45.75;22.33;;;;;;;;;;5029979;28;20037;-72
2021/09/28 04:25:49;;;;;;;41.25;22.33;;;;;;;;;;5028629;28;20034;-72
2021/09/28 04:28:15;;;;;;;38.13;23.23;;;;;;;;;;5029815;28;20025;-72
2021/09/28 04:30:41;;;;;;;45.47;23.52;;;;;;;;;;5028635;28;20060;-74
2021/09/28 04:33:07;;;;;;;44.53;21.73;;;;;;;;;;5029747;28;20053;-72
2021/09/28 04:35:32;;;;;;;41.17;21.52;;;;;;;;;;5029645;28;20032;-73
2021/09/28 04:37:58;;;;;;;43.53;21.25;;;;;;;;;;5028574;28;20025;-73
2021/09/28 04:40:23;;;;;;;40.78;20.48;;;;;;;;;;5029573;28;20029;-73
2021/09/28 04:42:49;;;;;;;37.78;20.48;;;;;;;;;;5033308;28;20055;-73
2021/09/28 04:45:14;;;;;;;39.88;21.80;;;;;;;;;;5032553;28;20431;-75
2021/09/28 04:47:40;;;;;;;40.83;22.40;;;;;;;;;;5032457;28;20021;-74
2021/09/28 04:50:06;;;;;;;38.10;21.10;;;;;;;;;;5032526;28;20037;-73
2021/09/28 04:52:32;;;;;;;40.60;21.17;;;;;;;;;;5033675;28;20108;-74
2021/09/28 04:54:58;;;;;;;47.33;22.17;;;;;;;;;;5032383;28;20120;-73
2021/09/28 04:57:24;;;;;;;41.63;21.20;;;;;;;;;;5032451;28;20060;-73
2021/09/28 04:59:49;;;;;;;44.05;22.25;;;;;;;;;;5033756;28;20028;-72
2021/09/28 05:02:15;;;;;;;44.53;21.45;;;;;;;;;;5033813;28;20029;-73
2021/09/28 05:04:42;;;;;;;43.35;21.60;;;;;;;;;;5033875;28;20022;-72
2021/09/28 05:07:07;;;;;;;47.78;22.05;;;;;;;;;;5032225;28;20048;-73
2021/09/28 05:09:32;;;;;;;38.45;20.23;;;;;;;;;;5033268;28;20030;-73
2021/09/28 05:11:59;;;;;;;49.78;23.00;;;;;;;;;;5033412;28;20025;-72
2021/09/28 05:14:26;;;;;;;43.08;21.38;;;;;;;;;;5032023;28;20022;-73
2021/09/28 05:16:51;;;;;;;45.92;22.73;;;;;;;;;;5031965;28;20112;-74
2021/09/28 05:19:17;;;;;;;45.33;23.20;;;;;;;;;;5032080;28;20112;-74
2021/09/28 05:21:42;;;;;;;39.67;21.05;;;;;;;;;;5033444;28;20552;-73
2021/09/28 05:24:08;;;;;;;50.47;21.27;;;;;;;;;;5031241;28;20021;-74
2021/09/28 05:26:33;;;;;;;37.95;20.23;;;;;;;;;;5032924;28;20034;-73
2021/09/28 05:28:59;;;;;;;40.78;21.30;;;;;;;;;;5031769;28;20061;-73
2021/09/28 05:31:25;;;;;;;45.55;23.23;;;;;;;;;;5033040;28;20560;-73
2021/09/28 05:33:50;;;;;;;40.92;20.50;;;;;;;;;;5033226;28;20056;-74
2021/09/28 05:36:16;;;;;;;39.05;20.42;;;;;;;;;;5033381;28;20021;-73
2021/09/28 05:38:42;;;;;;;44.25;21.58;;;;;;;;;;5033365;28;20052;-73
2021/09/28 05:41:09;;;;;;;34.28;19.63;;;;;;;;;;5032100;28;20033;-73
2021/09/28 05:43:35;;;;;;;46.80;22.45;;;;;;;;;;5033372;28;20025;-73
2021/09/28 05:46:01;;;;;;;41.42;21.65;;;;;;;;;;5032169;28;20053;-73
2021/09/28 05:48:26;;;;;;;37.75;20.08;;;;;;;;;;5031889;28;20492;-73
2021/09/28 05:50:52;;;;;;;36.28;19.63;;;;;;;;;;5032147;28;20116;-74
2021/09/28 05:53:17;;;;;;;41.45;21.65;;;;;;;;;;5032960;28;20029;-72
2021/09/28 05:55:43;;;;;;;33.85;18.75;;;;;;;;;;5031912;28;20052;-73
2021/09/28 05:58:09;;;;;;;38.42;19.83;;;;;;;;;;5031935;28;20037;-72
2021/09/28 06:00:35;;;;;;;44.42;22.15;;;;;;;;;;5032976;28;20033;-73
2021/09/28 06:03:00;;;;;;;42.30;20.52;;;;;;;;;;5028620;28;20079;-74
2021/09/28 06:05:26;;;;;;;42.88;21.40;;;;;;;;;;5032881;28;20104;-73
2021/09/28 06:07:52;;;;;;;50.35;23.10;;;;;;;;;;5031517;28;20025;-73
2021/09/28 06:10:18;;;;;;;41.83;21.73;;;;;;;;;;5048075;28;20029;-74
2021/09/28 06:12:43;;;;;;;43.05;21.45;;;;;;;;;;5033254;28;20029;-73
2021/09/28 06:15:10;;;;;;;40.45;21.17;;;;;;;;;;5031545;28;20037;-73
2021/09/28 06:17:35;;;;;;;39.72;20.92;;;;;;;;;;5030578;28;20463;-74
2021/09/28 06:20:01;;;;;;;40.42;20.08;;;;;;;;;;5031249;28;20033;-72
2021/09/28 06:22:27;;;;;;;43.85;21.55;;;;;;;;;;5030793;28;20107;-73
2021/09/28 06:24:55;;;;;;;37.55;21.23;;;;;;;;;;5030893;28;20083;-74
2021/09/28 06:27:22;;;;;;;38.67;19.05;;;;;;;;;;5030749;28;20026;-74
2021/09/28 06:29:47;;;;;;;40.15;20.10;;;;;;;;;;5031058;28;20120;-73
2021/09/28 06:32:13;;;;;;;45.63;21.33;;;;;;;;;;5025983;28;20144;-75
2021/09/28 06:34:38;;;;;;;41.58;20.08;;;;;;;;;;5028036;28;20548;-73
2021/09/28 06:37:04;;;;;;;39.55;19.98;;;;;;;;;;5035939;28;20079;-73
2021/09/28 06:39:30;;;;;;;36.42;19.63;;;;;;;;;;5030440;28;20485;-74
2021/09/28 06:41:55;;;;;;;35.40;20.60;;;;;;;;;;5031862;28;20034;-74
2021/09/28 06:44:21;;;;;;;38.22;19.45;;;;;;;;;;5029780;28;20025;-74
2021/09/28 06:46:47;;;;;;;36.88;19.63;;;;;;;;;;5030316;28;20025;-73
2021/09/28 06:49:12;;;;;;;39.42;19.05;;;;;;;;;;5013959;28;20033;-73
2021/09/28 06:51:38;;;;;;;41.08;19.73;;;;;;;;;;5030411;28;20036;-73
2021/09/28 06:54:04;;;;;;;38.25;18.35;;;;;;;;;;5034181;28;20085;-74
2021/09/28 06:56:29;;;;;;;39.47;19.95;;;;;;;;;;5034702;28;20385;-72
2021/09/28 06:58:55;;;;;;;35.75;20.42;;;;;;;;;;5043403;28;20029;-74
2021/09/28 07:01:21;;;;;;;30.92;18.63;;;;;;;;;;5029596;28;20045;-73
2021/09/28 07:03:46;;;;;;;34.47;18.00;;;;;;;;;;5029867;28;20032;-73
2021/09/28 07:06:12;;;;;;;34.22;19.02;;;;;;;;;;5045186;28;20036;-74
2021/09/28 07:08:37;;;;;;;38.13;17.90;;;;;;;;;;5029263;28;20025;-72
2021/09/28 07:11:03;;;;;;;33.85;17.83;;;;;;;;;;5031113;28;20033;-73
2021/09/28 07:13:28;;;;;;;29.15;17.45;;;;;;;;;;5028257;28;20048;-73
2021/09/28 07:15:55;;;;;;;31.20;16.90;;;;;;;;;;5045561;28;20128;-74
2021/09/28 07:18:21;;;;;;;32.97;17.70;;;;;;;;;;5029103;28;20440;-73
2021/09/28 07:20:46;;;;;;;30.52;17.25;;;;;;;;;;5023192;28;20056;-74
2021/09/28 07:23:14;;;;;;;34.97;17.35;;;;;;;;;;5026451;28;20375;-75
2021/09/28 07:25:40;;;;;;;34.00;17.55;;;;;;;;;;5025776;28;20111;-73
2021/09/28 07:28:08;;;;;;;31.30;17.65;;;;;;;;;;5029337;28;20064;-73
2021/09/28 07:30:40;;;;;;;30.67;18.02;;;;;;;;;;5027700;28;20083;-74
2021/09/28 07:33:05;;;;;;;33.17;17.10;;;;;;;;;;5023787;28;20061;-76
2021/09/28 07:35:31;;;;;;;28.20;17.45;;;;;;;;;;5029778;28;20033;-74
2021/09/28 07:37:57;;;;;;;28.33;15.65;;;;;;;;;;5031986;28;20061;-73
2021/09/28 07:40:23;;;;;;;26.10;15.60;;;;;;;;;;5026365;28;20399;-74
2021/09/28 07:42:48;;;;;;;30.50;16.30;;;;;;;;;;5022708;28;20103;-75
2021/09/28 07:45:23;;;;;;;36.80;19.10;;;;;;;;;;5026745;28;20091;-74
2021/09/28 07:47:50;;;;;;;26.27;15.80;;;;;;;;;;5027467;28;20269;-73
2021/09/28 07:50:19;;;;;;;26.90;15.70;;;;;;;;;;5030671;28;20035;-73
2021/09/28 07:52:45;;;;;;;25.20;14.70;;;;;;;;;;5034788;28;20021;-74
2021/09/28 07:55:11;;;;;;;30.60;14.90;;;;;;;;;;5029336;28;20029;-76
2021/09/28 07:57:43;;;;;;;29.85;15.75;;;;;;;;;;5042957;28;20104;-75
2021/09/28 08:00:10;;;;;;;31.85;16.33;;;;;;;;;;5031603;28;20021;-73
2021/09/28 08:02:42;;;;;;;30.58;16.65;;;;;;;;;;5031675;28;20053;-73
2021/09/28 08:05:11;;;;;;;27.33;16.85;;;;;;;;;;5035304;28;20473;-73
2021/09/28 08:07:39;;;;;;;28.55;15.77;;;;;;;;;;5026892;28;20788;-75
2021/09/28 08:10:08;;;;;;;30.25;15.82;;;;;;;;;;5043513;28;20119;-74
2021/09/28 08:12:38;;;;;;;30.88;15.90;;;;;;;;;;5043975;28;20022;-74
2021/09/28 08:15:16;;;;;;;32.38;16.63;;;;;;;;;;5037291;28;20045;-74
2021/09/28 08:17:45;;;;;;;27.45;14.50;;;;;;;;;;5033687;28;20037;-75
2021/09/28 08:20:17;;;;;;;26.17;14.43;;;;;;;;;;5031189;28;20454;-73
2021/09/28 08:22:42;;;;;;;27.17;16.10;;;;;;;;;;5047595;28;20032;-75
2021/09/28 08:25:13;;;;;;;25.38;15.48;;;;;;;;;;5049095;28;20037;-75
2021/09/28 08:30:27;;;;;;;23.30;14.68;;;;;;;;;;5018577;28;20040;-74
2021/09/28 08:32:53;;;;;;;28.23;15.23;;;;;;;;;;5022780;28;20140;-74
2021/09/28 08:35:19;;;;;;;27.15;13.88;;;;;;;;;;5039387;28;20116;-74
2021/09/28 08:37:45;;;;;;;26.30;13.50;;;;;;;;;;5022157;28;20116;-75
2021/09/28 08:40:18;;;;;;;21.90;13.75;;;;;;;;;;5058865;28;20031;-74
2021/09/28 08:42:57;;;;;;;23.65;12.82;;;;;;;;;;5030564;28;20032;-74
2021/09/28 08:45:32;;;;;;;27.95;13.32;;;;;;;;;;5028549;28;20029;-77
2021/09/28 08:47:58;;;;;;;33.35;13.27;;;;;;;;;;5060582;28;20393;-74
2021/09/28 08:50:24;;;;;;;25.90;13.50;;;;;;;;;;5030791;28;20083;-74
2021/09/28 08:52:52;;;;;;;24.90;12.57;;;;;;;;;;5032141;28;20112;-74
2021/09/28 08:55:18;;;;;;;23.52;13.43;;;;;;;;;;5037126;28;20354;-74
2021/09/28 08:57:44;;;;;;;26.27;14.43;;;;;;;;;;5040380;28;20542;-75
2021/09/28 09:00:13;;;;;;;23.98;12.23;;;;;;;;;;5024389;28;20089;-74
2021/09/28 09:02:41;;;;;;;27.58;12.38;;;;;;;;;;5028011;28;20025;-74
2021/09/28 09:05:12;;;;;;;19.00;11.50;;;;;;;;;;5035645;28;20047;-73
2021/09/28 09:07:38;;;;;;;20.05;12.13;;;;;;;;;;5010274;28;20045;-74
2021/09/28 09:10:04;;;;;;;17.83;11.18;;;;;;;;;;5009040;28;20203;-73
2021/09/28 09:12:36;;;;;;;27.25;13.90;;;;;;;;;;5042777;28;20075;-72
2021/09/28 09:15:23;;;;;;;20.52;11.80;;;;;;;;;;5013124;28;20014;-74
2021/09/28 09:17:54;;;;;;;17.40;11.77;;;;;;;;;;5015231;28;20064;-73
2021/09/28 09:20:20;;;;;;;17.38;11.05;;;;;;;;;;5035403;28;20025;-74
2021/09/28 09:22:46;;;;;;;20.42;11.07;;;;;;;;;;5036330;28;20034;-73
2021/09/28 09:25:19;;;;;;;20.73;12.27;;;;;;;;;;5030807;28;20017;-76
2021/09/28 09:27:45;;;;;;;19.77;11.85;;;;;;;;;;5026808;28;20036;-74
2021/09/28 09:30:15;;;;;;;24.35;12.65;;;;;;;;;;5039748;28;20025;-74
2021/09/28 09:32:51;;;;;;;27.30;12.10;;;;;;;;;;5020163;28;20053;-74
2021/09/28 09:35:21;;;;;;;19.98;11.20;;;;;;;;;;5029565;28;20447;-75
2021/09/28 09:37:47;;;;;;;21.65;11.27;;;;;;;;;;5046800;28;20025;-73
2021/09/28 09:40:30;;;;;;;15.65;9.15;;;;;;;;;;5042058;28;20030;-72
2021/09/28 09:42:56;;;;;;;20.75;10.32;;;;;;;;;;5024033;28;20040;-74
2021/09/28 09:45:23;;;;;;;15.35;10.65;;;;;;;;;;5029516;28;20021;-74
2021/09/28 09:47:49;;;;;;;16.15;9.45;;;;;;;;;;5025480;28;20033;-73
2021/09/28 09:50:17;;;;;;;16.15;10.35;;;;;;;;;;5027633;28;20068;-74
2021/09/28 09:52:58;;;;;;;18.83;9.80;;;;;;;;;;5033781;28;20029;-72
2021/09/28 09:55:25;;;;;;;19.08;10.88;;;;;;;;;;5046689;28;20032;-73
2021/09/28 09:57:52;;;;;;;16.30;10.10;;;;;;;;;;5044685;28;20459;-73
2021/09/28 10:00:18;;;;;;;35.25;22.42;;;;;;;;;;5017652;28;20398;-73
2021/09/28 10:02:44;;;;;;;18.23;9.90;;;;;;;;;;5040789;28;20032;-73
2021/09/28 10:05:09;;;;;;;19.15;10.68;;;;;;;;;;5019303;28;20040;-73
2021/09/28 10:07:35;;;;;;;25.70;10.65;;;;;;;;;;5044211;28;20043;-74
2021/09/28 10:10:00;;;;;;;15.75;10.68;;;;;;;;;;5038621;28;20449;-73
2021/09/28 10:12:35;;;;;;;18.38;10.60;;;;;;;;;;5049358;28;20033;-73
2021/09/28 10:15:14;;;;;;;15.80;9.63;;;;;;;;;;5038775;28;20056;-74
2021/09/28 10:17:45;;;;;;;14.75;7.88;;;;;;;;;;5035731;28;20100;-73
2021/09/28 10:20:22;;;;;;;15.13;8.82;;;;;;;;;;5036698;28;20059;-74
2021/09/28 10:22:53;;;;;;;17.67;9.23;;;;;;;;;;5031860;28;20030;-74
2021/09/28 10:25:19;;;;;;;17.85;9.30;;;;;;;;;;5034322;28;20508;-73
2021/09/28 10:27:45;;;;;;;18.35;9.60;;;;;;;;;;5033450;28;20025;-74
2021/09/28 10:30:31;;;;;;;17.75;7.72;;;;;;;;;;5041670;28;20473;-74
2021/09/28 10:33:24;;;;;;;11.82;7.65;;;;;;;;;;5033506;28;20060;-75
2021/09/28 10:35:56;;;;;;;10.68;7.47;;;;;;;;;;5038883;28;20136;-74
2021/09/28 10:38:53;;;;;;;14.10;8.98;;;;;;;;;;5026553;28;20029;-74
2021/09/28 10:41:48;;;;;;;12.38;7.72;;;;;;;;;;5025754;28;20038;-74
2021/09/28 10:44:25;;;;;;;17.08;8.40;;;;;;;;;;5027941;28;20554;-74
2021/09/28 10:46:52;;;;;;;12.90;9.43;;;;;;;;;;5021066;28;20025;-74
2021/09/28 10:49:31;;;;;;;17.05;8.10;;;;;;;;;;5025654;28;20022;-73
2021/09/28 10:52:25;;;;;;;16.58;9.75;;;;;;;;;;5037783;28;20037;-74
2021/09/28 10:55:06;;;;;;;16.30;9.10;;;;;;;;;;5043085;28;20035;-74
2021/09/28 10:57:55;;;;;;;21.17;9.05;;;;;;;;;;5026559;28;20037;-73
2021/09/28 11:00:21;;;;;;;15.95;8.55;;;;;;;;;;5040826;28;20025;-73
2021/09/28 11:02:55;;;;;;;13.52;8.98;;;;;;;;;;5044337;28;20032;-73
2021/09/28 11:05:30;;;;;;;16.55;9.23;;;;;;;;;;5044799;28;20017;-74
2021/09/28 11:08:00;;;;;;;14.57;8.70;;;;;;;;;;5035714;28;20465;-74
2021/09/28 11:10:26;;;;;;;16.08;9.32;;;;;;;;;;5030264;28;20040;-73
2021/09/28 11:12:52;;;;;;;15.85;9.18;;;;;;;;;;5029680;28;20037;-74
2021/09/28 11:15:27;;;;;;;13.77;8.95;;;;;;;;;;5021201;28;20525;-74
2021/09/28 11:17:53;;;;;;;16.73;9.52;;;;;;;;;;5009831;28;20070;-75
2021/09/28 11:20:26;;;;;;;18.23;9.75;;;;;;;;;;5009161;28;20084;-73
2021/09/28 11:23:00;;;;;;;16.98;9.50;;;;;;;;;;5008926;28;20061;-74
2021/09/28 11:25:30;;;;;;;20.25;10.15;;;;;;;;;;5036707;28;20499;-74
2021/09/28 11:28:07;;;;;;;14.25;9.10;;;;;;;;;;5046574;28;20035;-74
2021/09/28 11:30:38;;;;;;;16.65;8.27;;;;;;;;;;5018753;28;20028;-74
2021/09/28 11:33:07;;;;;;;19.95;9.75;;;;;;;;;;5046462;28;20132;-73
2021/09/28 11:35:33;;;;;;;16.67;10.07;;;;;;;;;;5048181;28;20036;-73
2021/09/28 11:38:02;;;;;;;13.02;7.72;;;;;;;;;;5042751;28;20103;-73
2021/09/28 11:40:35;;;;;;;12.65;9.02;;;;;;;;;;5015666;28;20049;-74
2021/09/28 11:43:24;;;;;;;13.60;9.32;;;;;;;;;;5052398;28;20029;-73
2021/09/28 11:46:09;;;;;;;12.75;8.50;;;;;;;;;;5021643;28;20481;-74
2021/09/28 11:48:38;;;;;;;16.80;9.20;;;;;;;;;;5049174;28;20523;-74
2021/09/28 11:51:12;;;;;;;13.15;8.07;;;;;;;;;;5033615;28;20104;-74
2021/09/28 11:53:50;;;;;;;15.00;9.43;;;;;;;;;;5016536;28;20049;-75
2021/09/28 11:56:19;;;;;;;18.67;9.75;;;;;;;;;;5040473;28;20083;-72
2021/09/28 11:58:45;;;;;;;13.40;9.00;;;;;;;;;;5028591;28;20411;-74
2021/09/28 12:01:13;;;;;;;13.35;10.30;;;;;;;;;;5045580;28;20054;-74
2021/09/28 12:09:51;;;;;;;15.35;11.00;;;;;;;;;;5029792;28;20436;-74
2021/09/28 12:12:19;;;;;;;18.88;11.73;;;;;;;;;;5030056;28;20037;-73
2021/09/28 12:14:53;;;;;;;18.50;12.20;;;;;;;;;;5034338;28;20079;-75
2021/09/28 12:17:34;;;;;;;25.20;15.15;;;;;;;;;;5026977;28;20064;-73
2021/09/28 12:20:07;;;;;;;22.48;13.80;;;;;;;;;;5028437;28;20088;-74
2021/09/28 12:22:56;;;;;;;18.17;12.55;;;;;;;;;;5037493;28;20037;-74
2021/09/28 12:25:25;;;;;;;27.83;14.60;;;;;;;;;;5031347;28;20055;-74
2021/09/28 12:27:59;;;;;;;19.30;13.55;;;;;;;;;;5047906;28;20059;-74
2021/09/28 12:30:29;;;;;;;25.00;14.05;;;;;;;;;;5032378;28;20061;-73
2021/09/28 12:32:56;;;;;;;19.27;13.02;;;;;;;;;;5028054;28;20547;-74
2021/09/28 12:35:25;;;;;;;21.73;14.82;;;;;;;;;;5043731;28;20103;-73
2021/09/28 12:37:56;;;;;;;20.05;13.43;;;;;;;;;;5034958;28;20044;-74
2021/09/28 12:40:26;;;;;;;16.95;13.02;;;;;;;;;;5048080;28;20056;-74
2021/09/28 12:43:21;;;;;;;21.63;14.10;;;;;;;;;;5031967;28;20083;-73
2021/09/28 12:45:56;;;;;;;18.92;13.32;;;;;;;;;;5015388;28;20037;-73
2021/09/28 12:48:32;;;;;;;21.75;13.68;;;;;;;;;;5037554;28;20455;-75
2021/09/28 12:51:06;;;;;;;20.90;12.55;;;;;;;;;;5034294;28;20057;-74
2021/09/28 12:53:32;;;;;;;22.52;13.10;;;;;;;;;;5030633;28;20362;-75
2021/09/28 12:55:58;;;;;;;18.83;12.35;;;;;;;;;;5042059;28;20025;-74
2021/09/28 12:58:24;;;;;;;27.70;14.73;;;;;;;;;;5035375;28;20029;-74
2021/09/28 13:00:52;;;;;;;20.95;13.70;;;;;;;;;;5034709;28;20032;-74
2021/09/28 13:03:22;;;;;;;22.50;13.20;;;;;;;;;;5028660;28;20532;-76
2021/09/28 13:05:58;;;;;;;21.50;12.27;;;;;;;;;;5031829;28;20455;-76
2021/09/28 13:08:27;;;;;;;19.13;12.52;;;;;;;;;;5040582;28;20068;-75
2021/09/28 13:10:55;;;;;;;21.40;12.52;;;;;;;;;;5037500;28;20029;-75
2021/09/28 13:13:22;;;;;;;24.38;13.43;;;;;;;;;;5037924;28;20040;-75
2021/09/28 13:15:48;;;;;;;23.70;13.52;;;;;;;;;;5047530;28;20095;-76
2021/09/28 13:18:15;;;;;;;27.02;14.65;;;;;;;;;;5038442;28;20565;-76
2021/09/28 13:20:41;;;;;;;24.77;13.20;;;;;;;;;;5044517;28;20033;-77
2021/09/28 13:23:07;;;;;;;23.00;13.60;;;;;;;;;;5022433;28;20100;-77
2021/09/28 13:25:34;;;;;;;21.30;12.52;;;;;;;;;;5048991;28;20044;-76
2021/09/28 13:28:01;;;;;;;28.75;12.60;;;;;;;;;;5040060;28;20020;-77
2021/09/28 13:30:27;;;;;;;22.73;12.73;;;;;;;;;;5042473;28;20120;-76
2021/09/28 13:32:52;;;;;;;21.13;11.60;;;;;;;;;;5047038;28;20669;-76
2021/09/28 13:35:19;;;;;;;26.38;12.32;;;;;;;;;;5036315;28;20076;-75
2021/09/28 13:37:44;;;;;;;20.20;11.57;;;;;;;;;;5046284;28;20018;-76
2021/09/28 13:40:11;;;;;;;16.35;11.70;;;;;;;;;;5041190;28;20025;-77
2021/09/28 13:42:37;;;;;;;20.88;11.13;;;;;;;;;;5040094;28;20052;-75
2021/09/28 13:45:03;;;;;;;17.20;9.85;;;;;;;;;;5032487;28;20374;-76
2021/09/28 13:47:29;;;;;;;15.73;9.07;;;;;;;;;;5036328;28;20067;-76
2021/09/28 13:49:55;;;;;;;14.88;9.55;;;;;;;;;;5047963;28;20058;-78
2021/09/28 13:52:20;;;;;;;12.70;8.50;;;;;;;;;;5041824;28;20032;-77
2021/09/28 13:54:46;;;;;;;11.20;7.80;;;;;;;;;;5051428;28;20540;-77
2021/09/28 13:57:12;;;;;;;18.15;9.48;;;;;;;;;;5035781;28;20389;-75
2021/09/28 13:59:38;;;;;;;13.98;9.30;;;;;;;;;;5031067;28;20111;-77
2021/09/28 14:02:04;;;;;;;14.50;9.30;;;;;;;;;;5052346;28;20104;-75
2021/09/28 14:04:30;;;;;;;19.00;10.18;;;;;;;;;;5038430;28;20041;-75
2021/09/28 14:06:55;;;;;;;21.75;11.07;;;;;;;;;;5032398;28;20147;-76
2021/09/28 14:09:21;;;;;;;14.20;8.52;;;;;;;;;;5030308;28;20057;-77
2021/09/28 14:11:48;;;;;;;18.95;8.32;;;;;;;;;;5047481;28;20026;-77
2021/09/28 14:14:13;;;;;;;12.60;8.20;;;;;;;;;;5038949;28;20111;-77
2021/09/28 14:16:39;;;;;;;15.15;7.85;;;;;;;;;;5043749;28;20104;-75
2021/09/28 14:19:05;;;;;;;13.27;7.55;;;;;;;;;;5037905;28;20037;-76
2021/09/28 14:21:30;;;;;;;13.23;7.78;;;;;;;;;;5048548;28;20025;-77
2021/09/28 14:23:56;;;;;;;14.10;7.07;;;;;;;;;;5038360;28;20021;-75
2021/09/28 14:26:21;;;;;;;15.63;6.82;;;;;;;;;;5041432;28;20451;-76
2021/09/28 14:28:47;;;;;;;14.15;7.60;;;;;;;;;;5044823;28;20488;-75
2021/09/28 14:31:13;;;;;;;9.88;6.88;;;;;;;;;;5033554;28;20022;-74